sensor_id;sensor_type;location;lat;lon;timestamp;pressure;altitude;pressure_sealevel;temperature;humidity
78835;BME280;68187;42.682;23.352;2023-03-11T00:02:10;93367.16;;;10.46;84.59
78835;BME280;68187;42.682;23.352;2023-03-11T00:04:37;93386.53;;;10.42;83.96
78835;BME280;68187;42.682;23.352;2023-03-11T00:07:05;93396.09;;;10.29;83.39
78835;BME280;68187;42.682;23.352;2023-03-11T00:09:32;93392.84;;;10.24;82.00
78835;BME280;68187;42.682;23.352;2023-03-11T00:11:59;93386.06;;;10.09;82.25
78835;BME280;68187;42.682;23.352;2023-03-11T00:14:27;93372.53;;;10.02;81.77
78835;BME280;68187;42.682;23.352;2023-03-11T00:16:54;93377.88;;;9.88;81.57
78835;BME280;68187;42.682;23.352;2023-03-11T00:19:21;93354.66;;;9.68;81.52
78835;BME280;68187;42.682;23.352;2023-03-11T00:21:48;93341.00;;;9.66;82.62
78835;BME280;68187;42.682;23.352;2023-03-11T00:24:14;93359.16;;;9.68;82.92
78835;BME280;68187;42.682;23.352;2023-03-11T00:26:41;93346.59;;;9.65;83.12
78835;BME280;68187;42.682;23.352;2023-03-11T00:29:08;93364.38;;;9.59;82.74
78835;BME280;68187;42.682;23.352;2023-03-11T00:31:36;93353.31;;;9.49;83.63
78835;BME280;68187;42.682;23.352;2023-03-11T00:34:03;93352.72;;;9.52;84.31
78835;BME280;68187;42.682;23.352;2023-03-11T00:36:31;93344.81;;;9.52;83.61
78835;BME280;68187;42.682;23.352;2023-03-11T00:38:58;93355.53;;;9.55;83.17
78835;BME280;68187;42.682;23.352;2023-03-11T00:41:26;93353.06;;;9.59;82.48
78835;BME280;68187;42.682;23.352;2023-03-11T00:43:53;93356.31;;;9.56;82.48
78835;BME280;68187;42.682;23.352;2023-03-11T00:46:20;93358.50;;;9.62;83.00
78835;BME280;68187;42.682;23.352;2023-03-11T00:48:49;93348.09;;;9.57;82.69
78835;BME280;68187;42.682;23.352;2023-03-11T00:51:16;93344.78;;;9.74;82.11
78835;BME280;68187;42.682;23.352;2023-03-11T00:53:43;93335.50;;;9.76;81.47
78835;BME280;68187;42.682;23.352;2023-03-11T00:56:12;93331.63;;;9.82;81.17
78835;BME280;68187;42.682;23.352;2023-03-11T00:58:40;93318.00;;;9.80;81.89
78835;BME280;68187;42.682;23.352;2023-03-11T01:01:07;93309.06;;;9.68;82.47
78835;BME280;68187;42.682;23.352;2023-03-11T01:03:35;93309.75;;;9.82;83.22
78835;BME280;68187;42.682;23.352;2023-03-11T01:06:04;93314.25;;;9.81;83.29
78835;BME280;68187;42.682;23.352;2023-03-11T01:08:31;93309.47;;;9.83;82.90
78835;BME280;68187;42.682;23.352;2023-03-11T01:10:58;93308.56;;;9.88;82.62
78835;BME280;68187;42.682;23.352;2023-03-11T01:13:27;93310.09;;;9.89;82.60
78835;BME280;68187;42.682;23.352;2023-03-11T01:15:54;93307.00;;;9.87;83.00
78835;BME280;68187;42.682;23.352;2023-03-11T01:18:21;93298.97;;;9.92;82.69
78835;BME280;68187;42.682;23.352;2023-03-11T01:20:48;93284.41;;;9.94;82.49
78835;BME280;68187;42.682;23.352;2023-03-11T01:23:18;93276.78;;;9.93;81.87
78835;BME280;68187;42.682;23.352;2023-03-11T01:25:45;93276.94;;;9.88;82.46
78835;BME280;68187;42.682;23.352;2023-03-11T01:28:12;93240.88;;;9.75;82.88
78835;BME280;68187;42.682;23.352;2023-03-11T01:30:40;93261.72;;;9.85;83.06
78835;BME280;68187;42.682;23.352;2023-03-11T01:33:08;93260.94;;;9.84;82.89
78835;BME280;68187;42.682;23.352;2023-03-11T01:35:38;93261.56;;;9.90;82.55
78835;BME280;68187;42.682;23.352;2023-03-11T01:38:06;93248.22;;;9.86;82.67
78835;BME280;68187;42.682;23.352;2023-03-11T01:40:36;93253.00;;;9.84;82.66
78835;BME280;68187;42.682;23.352;2023-03-11T01:43:05;93243.06;;;9.81;82.65
78835;BME280;68187;42.682;23.352;2023-03-11T01:45:38;93241.84;;;9.79;82.98
78835;BME280;68187;42.682;23.352;2023-03-11T01:48:07;93241.34;;;9.77;83.51
78835;BME280;68187;42.682;23.352;2023-03-11T01:50:35;93232.38;;;9.78;83.20
78835;BME280;68187;42.682;23.352;2023-03-11T01:53:04;93228.78;;;9.74;83.64
78835;BME280;68187;42.682;23.352;2023-03-11T01:55:31;93239.34;;;9.74;83.60
78835;BME280;68187;42.682;23.352;2023-03-11T01:58:02;93248.94;;;9.70;83.91
78835;BME280;68187;42.682;23.352;2023-03-11T02:00:29;93268.72;;;9.59;84.54
78835;BME280;68187;42.682;23.352;2023-03-11T02:02:59;93258.13;;;9.50;85.21
78835;BME280;68187;42.682;23.352;2023-03-11T02:05:28;93270.06;;;9.48;85.09
78835;BME280;68187;42.682;23.352;2023-03-11T02:07:57;93264.31;;;9.46;85.45
78835;BME280;68187;42.682;23.352;2023-03-11T02:10:24;93255.00;;;9.40;85.16
78835;BME280;68187;42.682;23.352;2023-03-11T02:12:51;93270.38;;;9.46;85.42
78835;BME280;68187;42.682;23.352;2023-03-11T02:15:20;93282.75;;;9.46;85.04
78835;BME280;68187;42.682;23.352;2023-03-11T02:17:47;93289.56;;;9.38;84.83
78835;BME280;68187;42.682;23.352;2023-03-11T02:20:21;93285.25;;;9.42;84.55
78835;BME280;68187;42.682;23.352;2023-03-11T02:22:53;93283.66;;;9.41;83.79
78835;BME280;68187;42.682;23.352;2023-03-11T02:25:26;93290.31;;;9.39;83.91
78835;BME280;68187;42.682;23.352;2023-03-11T02:27:58;93282.25;;;9.35;84.43
78835;BME280;68187;42.682;23.352;2023-03-11T02:30:27;93283.94;;;9.31;84.16
78835;BME280;68187;42.682;23.352;2023-03-11T02:32:55;93295.38;;;9.26;84.38
78835;BME280;68187;42.682;23.352;2023-03-11T02:35:22;93296.31;;;9.30;83.62
78835;BME280;68187;42.682;23.352;2023-03-11T02:37:51;93282.78;;;9.23;83.69
78835;BME280;68187;42.682;23.352;2023-03-11T02:40:52;93289.97;;;9.31;83.87
78835;BME280;68187;42.682;23.352;2023-03-11T02:43:25;93278.66;;;9.31;83.86
78835;BME280;68187;42.682;23.352;2023-03-11T02:45:54;93285.47;;;9.32;83.96
78835;BME280;68187;42.682;23.352;2023-03-11T02:48:22;93289.84;;;9.37;83.50
78835;BME280;68187;42.682;23.352;2023-03-11T02:50:50;93288.22;;;9.27;83.17
78835;BME280;68187;42.682;23.352;2023-03-11T02:53:17;93303.81;;;9.37;82.77
78835;BME280;68187;42.682;23.352;2023-03-11T02:55:44;93285.59;;;9.27;82.05
78835;BME280;68187;42.682;23.352;2023-03-11T02:58:11;93311.38;;;9.39;83.12
78835;BME280;68187;42.682;23.352;2023-03-11T03:00:39;93282.06;;;9.31;81.20
78835;BME280;68187;42.682;23.352;2023-03-11T03:03:05;93296.13;;;9.49;79.54
78835;BME280;68187;42.682;23.352;2023-03-11T03:05:33;93283.50;;;9.38;79.42
78835;BME280;68187;42.682;23.352;2023-03-11T03:07:59;93288.81;;;9.46;81.66
78835;BME280;68187;42.682;23.352;2023-03-11T03:10:27;93296.47;;;9.56;82.27
78835;BME280;68187;42.682;23.352;2023-03-11T03:12:53;93300.78;;;9.52;83.24
78835;BME280;68187;42.682;23.352;2023-03-11T03:15:20;93306.94;;;9.48;83.31
78835;BME280;68187;42.682;23.352;2023-03-11T03:17:48;93304.16;;;9.44;83.30
78835;BME280;68187;42.682;23.352;2023-03-11T03:20:17;93309.59;;;9.48;83.61
78835;BME280;68187;42.682;23.352;2023-03-11T03:22:47;93309.13;;;9.46;83.87
78835;BME280;68187;42.682;23.352;2023-03-11T03:25:15;93308.63;;;9.44;83.88
78835;BME280;68187;42.682;23.352;2023-03-11T03:27:42;93304.94;;;9.45;84.11
78835;BME280;68187;42.682;23.352;2023-03-11T03:30:09;93300.56;;;9.40;83.91
78835;BME280;68187;42.682;23.352;2023-03-11T03:32:36;93317.22;;;9.49;83.76
78835;BME280;68187;42.682;23.352;2023-03-11T03:35:06;93295.09;;;9.37;84.11
78835;BME280;68187;42.682;23.352;2023-03-11T03:37:35;93310.00;;;9.41;84.27
78835;BME280;68187;42.682;23.352;2023-03-11T03:40:04;93304.50;;;9.51;84.10
78835;BME280;68187;42.682;23.352;2023-03-11T03:42:33;93308.53;;;9.49;84.01
78835;BME280;68187;42.682;23.352;2023-03-11T03:45:00;93293.41;;;9.41;84.04
78835;BME280;68187;42.682;23.352;2023-03-11T03:47:27;93308.22;;;9.50;84.26
78835;BME280;68187;42.682;23.352;2023-03-11T03:49:53;93301.56;;;9.53;83.97
78835;BME280;68187;42.682;23.352;2023-03-11T03:52:21;93296.28;;;9.53;83.97
78835;BME280;68187;42.682;23.352;2023-03-11T03:54:48;93297.84;;;9.54;83.66
78835;BME280;68187;42.682;23.352;2023-03-11T03:57:16;93286.97;;;9.47;84.09
78835;BME280;68187;42.682;23.352;2023-03-11T03:59:43;93284.63;;;9.45;84.70
78835;BME280;68187;42.682;23.352;2023-03-11T04:02:09;93286.19;;;9.46;84.90
78835;BME280;68187;42.682;23.352;2023-03-11T04:04:36;93289.72;;;9.42;84.25
78835;BME280;68187;42.682;23.352;2023-03-11T04:07:03;93291.09;;;9.39;84.10
78835;BME280;68187;42.682;23.352;2023-03-11T04:09:32;93296.97;;;9.36;84.83
78835;BME280;68187;42.682;23.352;2023-03-11T04:11:59;93274.00;;;9.28;84.51
78835;BME280;68187;42.682;23.352;2023-03-11T04:14:26;93280.63;;;9.25;83.24
78835;BME280;68187;42.682;23.352;2023-03-11T04:16:52;93279.25;;;9.28;83.55
78835;BME280;68187;42.682;23.352;2023-03-11T04:19:19;93288.59;;;9.34;83.85
78835;BME280;68187;42.682;23.352;2023-03-11T04:21:46;93284.22;;;9.29;81.96
78835;BME280;68187;42.682;23.352;2023-03-11T04:24:13;93297.75;;;9.37;81.32
78835;BME280;68187;42.682;23.352;2023-03-11T04:26:41;93288.16;;;9.41;77.28
78835;BME280;68187;42.682;23.352;2023-03-11T04:29:08;93265.66;;;9.34;75.84
78835;BME280;68187;42.682;23.352;2023-03-11T04:31:34;93288.91;;;9.63;73.99
78835;BME280;68187;42.682;23.352;2023-03-11T04:34:01;93288.84;;;9.85;71.36
78835;BME280;68187;42.682;23.352;2023-03-11T04:36:28;93288.41;;;9.92;71.67
78835;BME280;68187;42.682;23.352;2023-03-11T04:38:55;93288.88;;;9.94;71.32
78835;BME280;68187;42.682;23.352;2023-03-11T04:41:22;93277.28;;;10.03;68.20
78835;BME280;68187;42.682;23.352;2023-03-11T04:43:51;93289.16;;;10.23;68.57
78835;BME280;68187;42.682;23.352;2023-03-11T04:46:17;93289.47;;;10.22;68.54
78835;BME280;68187;42.682;23.352;2023-03-11T04:48:44;93289.03;;;10.28;66.10
78835;BME280;68187;42.682;23.352;2023-03-11T04:51:11;93286.84;;;10.30;66.37
78835;BME280;68187;42.682;23.352;2023-03-11T04:53:38;93287.50;;;10.44;65.86
78835;BME280;68187;42.682;23.352;2023-03-11T04:56:05;93284.88;;;10.44;65.50
78835;BME280;68187;42.682;23.352;2023-03-11T04:58:31;93293.72;;;10.48;65.18
78835;BME280;68187;42.682;23.352;2023-03-11T05:01:00;93292.66;;;10.49;65.30
78835;BME280;68187;42.682;23.352;2023-03-11T05:03:26;93312.66;;;10.42;67.39
78835;BME280;68187;42.682;23.352;2023-03-11T05:05:53;93309.22;;;10.41;65.24
78835;BME280;68187;42.682;23.352;2023-03-11T05:08:22;93308.31;;;10.46;64.07
78835;BME280;68187;42.682;23.352;2023-03-11T05:10:50;93299.78;;;10.49;64.07
78835;BME280;68187;42.682;23.352;2023-03-11T05:13:17;93317.81;;;10.55;64.23
78835;BME280;68187;42.682;23.352;2023-03-11T05:15:44;93318.13;;;10.54;63.42
78835;BME280;68187;42.682;23.352;2023-03-11T05:18:12;93327.44;;;10.60;64.27
78835;BME280;68187;42.682;23.352;2023-03-11T05:20:39;93316.56;;;10.70;62.27
78835;BME280;68187;42.682;23.352;2023-03-11T05:23:06;93316.09;;;10.68;62.91
78835;BME280;68187;42.682;23.352;2023-03-11T05:25:33;93324.66;;;10.73;62.17
78835;BME280;68187;42.682;23.352;2023-03-11T05:28:00;93326.66;;;10.68;63.06
78835;BME280;68187;42.682;23.352;2023-03-11T05:30:27;93341.44;;;10.77;61.70
78835;BME280;68187;42.682;23.352;2023-03-11T05:32:54;93336.47;;;10.76;61.74
78835;BME280;68187;42.682;23.352;2023-03-11T05:35:23;93324.81;;;10.77;61.67
78835;BME280;68187;42.682;23.352;2023-03-11T05:38:07;93343.31;;;10.86;60.42
78835;BME280;68187;42.682;23.352;2023-03-11T05:40:34;93328.88;;;10.83;60.48
78835;BME280;68187;42.682;23.352;2023-03-11T05:43:00;93353.88;;;10.86;61.11
78835;BME280;68187;42.682;23.352;2023-03-11T05:45:27;93356.53;;;10.86;61.53
78835;BME280;68187;42.682;23.352;2023-03-11T05:47:54;93355.28;;;10.92;61.33
78835;BME280;68187;42.682;23.352;2023-03-11T05:50:22;93356.22;;;10.87;61.45
78835;BME280;68187;42.682;23.352;2023-03-11T05:52:49;93364.28;;;10.91;62.36
78835;BME280;68187;42.682;23.352;2023-03-11T05:55:16;93357.47;;;10.90;61.17
78835;BME280;68187;42.682;23.352;2023-03-11T05:57:43;93369.28;;;10.92;60.94
78835;BME280;68187;42.682;23.352;2023-03-11T06:00:10;93355.91;;;10.89;61.03
78835;BME280;68187;42.682;23.352;2023-03-11T06:02:37;93387.44;;;10.94;62.60
78835;BME280;68187;42.682;23.352;2023-03-11T06:05:06;93375.16;;;10.89;63.85
78835;BME280;68187;42.682;23.352;2023-03-11T06:07:35;93392.25;;;10.92;62.09
78835;BME280;68187;42.682;23.352;2023-03-11T06:10:03;93393.03;;;10.92;63.10
78835;BME280;68187;42.682;23.352;2023-03-11T06:12:32;93382.16;;;10.85;63.48
78835;BME280;68187;42.682;23.352;2023-03-11T06:14:59;93394.44;;;10.90;62.57
78835;BME280;68187;42.682;23.352;2023-03-11T06:17:26;93396.44;;;10.93;62.39
78835;BME280;68187;42.682;23.352;2023-03-11T06:19:53;93399.25;;;10.88;62.57
78835;BME280;68187;42.682;23.352;2023-03-11T06:22:19;93399.72;;;10.81;63.72
78835;BME280;68187;42.682;23.352;2023-03-11T06:24:48;93392.53;;;10.73;63.77
78835;BME280;68187;42.682;23.352;2023-03-11T06:27:14;93382.75;;;10.65;64.11
78835;BME280;68187;42.682;23.352;2023-03-11T06:29:41;93402.94;;;10.69;65.04
78835;BME280;68187;42.682;23.352;2023-03-11T06:32:08;93400.25;;;10.61;66.16
78835;BME280;68187;42.682;23.352;2023-03-11T06:34:35;93395.59;;;10.58;66.17
78835;BME280;68187;42.682;23.352;2023-03-11T06:37:02;93396.53;;;10.62;66.49
78835;BME280;68187;42.682;23.352;2023-03-11T06:39:29;93381.75;;;10.52;66.25
78835;BME280;68187;42.682;23.352;2023-03-11T06:41:57;93408.66;;;10.63;66.98
78835;BME280;68187;42.682;23.352;2023-03-11T06:44:23;93402.16;;;10.69;67.49
78835;BME280;68187;42.682;23.352;2023-03-11T06:46:50;93399.72;;;10.81;68.74
78835;BME280;68187;42.682;23.352;2023-03-11T06:49:17;93396.44;;;10.93;67.68
78835;BME280;68187;42.682;23.352;2023-03-11T06:51:44;93398.78;;;10.94;68.20
78835;BME280;68187;42.682;23.352;2023-03-11T06:54:11;93400.03;;;10.97;68.50
78835;BME280;68187;42.682;23.352;2023-03-11T06:56:37;93395.84;;;10.96;69.84
78835;BME280;68187;42.682;23.352;2023-03-11T06:59:05;93400.19;;;10.92;67.77
78835;BME280;68187;42.682;23.352;2023-03-11T07:01:32;93399.56;;;10.95;66.80
78835;BME280;68187;42.682;23.352;2023-03-11T07:03:59;93400.19;;;11.00;65.93
78835;BME280;68187;42.682;23.352;2023-03-11T07:06:27;93400.06;;;11.05;65.04
78835;BME280;68187;42.682;23.352;2023-03-11T07:08:54;93401.59;;;11.06;65.75
78835;BME280;68187;42.682;23.352;2023-03-11T07:11:23;93393.19;;;10.96;63.53
78835;BME280;68187;42.682;23.352;2023-03-11T07:13:50;93410.28;;;10.90;63.46
78835;BME280;68187;42.682;23.352;2023-03-11T07:16:20;93406.50;;;10.73;65.94
78835;BME280;68187;42.682;23.352;2023-03-11T07:18:48;93409.31;;;10.77;66.68
78835;BME280;68187;42.682;23.352;2023-03-11T07:21:17;93404.22;;;10.81;66.42
78835;BME280;68187;42.682;23.352;2023-03-11T07:23:44;93393.00;;;10.84;64.48
78835;BME280;68187;42.682;23.352;2023-03-11T07:26:14;93399.84;;;10.85;65.29
78835;BME280;68187;42.682;23.352;2023-03-11T07:28:42;93394.44;;;10.90;65.84
78835;BME280;68187;42.682;23.352;2023-03-11T07:31:12;93389.16;;;10.90;63.62
78835;BME280;68187;42.682;23.352;2023-03-11T07:33:40;93377.50;;;10.91;64.71
78835;BME280;68187;42.682;23.352;2023-03-11T07:36:08;93372.25;;;11.08;64.73
78835;BME280;68187;42.682;23.352;2023-03-11T07:38:35;93371.78;;;11.14;65.44
78835;BME280;68187;42.682;23.352;2023-03-11T07:41:02;93373.31;;;11.15;66.31
78835;BME280;68187;42.682;23.352;2023-03-11T07:43:29;93366.94;;;11.25;66.46
78835;BME280;68187;42.682;23.352;2023-03-11T07:46:04;93349.88;;;11.31;64.21
78835;BME280;68187;42.682;23.352;2023-03-11T07:48:31;93368.97;;;11.71;63.38
78835;BME280;68187;42.682;23.352;2023-03-11T07:51:01;93366.31;;;11.88;60.52
78835;BME280;68187;42.682;23.352;2023-03-11T07:53:28;93364.72;;;11.95;60.83
78835;BME280;68187;42.682;23.352;2023-03-11T07:55:55;93353.31;;;12.12;59.62
78835;BME280;68187;42.682;23.352;2023-03-11T07:58:23;93350.56;;;12.38;58.97
78835;BME280;68187;42.682;23.352;2023-03-11T08:00:49;93338.34;;;12.54;58.16
78835;BME280;68187;42.682;23.352;2023-03-11T08:03:17;93318.13;;;12.49;56.42
78835;BME280;68187;42.682;23.352;2023-03-11T08:05:43;93329.84;;;12.69;55.55
78835;BME280;68187;42.682;23.352;2023-03-11T08:08:12;93320.59;;;12.75;55.69
78835;BME280;68187;42.682;23.352;2023-03-11T08:10:38;93306.47;;;12.71;56.32
78835;BME280;68187;42.682;23.352;2023-03-11T08:13:05;93311.44;;;12.93;56.37
78835;BME280;68187;42.682;23.352;2023-03-11T08:15:32;93312.72;;;13.16;55.74
78835;BME280;68187;42.682;23.352;2023-03-11T08:17:59;93301.22;;;13.45;56.84
78835;BME280;68187;42.682;23.352;2023-03-11T08:20:25;93291.16;;;13.71;55.93
78835;BME280;68187;42.682;23.352;2023-03-11T08:22:52;93285.44;;;13.93;54.07
78835;BME280;68187;42.682;23.352;2023-03-11T08:25:21;93285.03;;;14.03;54.30
78835;BME280;68187;42.682;23.352;2023-03-11T08:27:47;93279.16;;;14.22;53.46
78835;BME280;68187;42.682;23.352;2023-03-11T08:30:14;93279.38;;;14.17;50.23
78835;BME280;68187;42.682;23.352;2023-03-11T08:32:41;93275.81;;;14.13;49.18
78835;BME280;68187;42.682;23.352;2023-03-11T08:35:09;93261.03;;;14.12;48.67
78835;BME280;68187;42.682;23.352;2023-03-11T08:37:38;93275.16;;;14.16;48.79
78835;BME280;68187;42.682;23.352;2023-03-11T08:40:06;93260.16;;;14.32;49.27
78835;BME280;68187;42.682;23.352;2023-03-11T08:42:36;93259.81;;;14.46;50.06
78835;BME280;68187;42.682;23.352;2023-03-11T08:45:03;93267.66;;;14.66;49.07
78835;BME280;68187;42.682;23.352;2023-03-11T08:47:32;93261.13;;;14.76;47.71
78835;BME280;68187;42.682;23.352;2023-03-11T08:49:59;93256.53;;;14.88;49.25
78835;BME280;68187;42.682;23.352;2023-03-11T08:52:26;93258.16;;;15.05;44.89
78835;BME280;68187;42.682;23.352;2023-03-11T08:54:53;93237.75;;;15.09;45.00
78835;BME280;68187;42.682;23.352;2023-03-11T08:57:20;93244.25;;;14.84;44.92
78835;BME280;68187;42.682;23.352;2023-03-11T08:59:48;93241.03;;;14.90;47.13
78835;BME280;68187;42.682;23.352;2023-03-11T09:02:15;93224.97;;;14.99;44.53
78835;BME280;68187;42.682;23.352;2023-03-11T09:04:41;93260.47;;;15.07;45.77
78835;BME280;68187;42.682;23.352;2023-03-11T09:07:10;93225.97;;;14.94;44.72
78835;BME280;68187;42.682;23.352;2023-03-11T09:09:37;93238.97;;;15.12;44.46
78835;BME280;68187;42.682;23.352;2023-03-11T09:12:04;93227.75;;;15.18;44.57
78835;BME280;68187;42.682;23.352;2023-03-11T09:14:32;93235.53;;;15.39;44.10
78835;BME280;68187;42.682;23.352;2023-03-11T09:17:01;93227.84;;;15.49;44.65
78835;BME280;68187;42.682;23.352;2023-03-11T09:19:28;93210.97;;;15.57;43.58
78835;BME280;68187;42.682;23.352;2023-03-11T09:21:54;93224.69;;;15.44;42.84
78835;BME280;68187;42.682;23.352;2023-03-11T09:24:21;93233.94;;;15.50;43.65
78835;BME280;68187;42.682;23.352;2023-03-11T09:26:48;93220.00;;;15.68;43.96
78835;BME280;68187;42.682;23.352;2023-03-11T09:29:15;93232.53;;;15.84;43.11
78835;BME280;68187;42.682;23.352;2023-03-11T09:31:41;93232.69;;;15.75;44.62
78835;BME280;68187;42.682;23.352;2023-03-11T09:34:11;93214.84;;;15.60;43.60
78835;BME280;68187;42.682;23.352;2023-03-11T09:36:39;93235.69;;;15.58;44.23
78835;BME280;68187;42.682;23.352;2023-03-11T09:39:06;93219.44;;;15.63;43.47
78835;BME280;68187;42.682;23.352;2023-03-11T09:41:37;93214.25;;;15.66;43.80
78835;BME280;68187;42.682;23.352;2023-03-11T09:44:12;93217.25;;;15.81;43.85
78835;BME280;68187;42.682;23.352;2023-03-11T09:50:02;93225.47;;;16.38;42.34
78835;BME280;68187;42.682;23.352;2023-03-11T09:52:36;93205.63;;;16.51;43.25
78835;BME280;68187;42.682;23.352;2023-03-11T09:55:20;93220.28;;;16.61;42.00
78835;BME280;68187;42.682;23.352;2023-03-11T09:57:51;93205.19;;;16.33;40.65
78835;BME280;68187;42.682;23.352;2023-03-11T10:00:20;93195.41;;;16.22;40.40
78835;BME280;68187;42.682;23.352;2023-03-11T10:02:48;93186.81;;;16.28;41.78
78835;BME280;68187;42.682;23.352;2023-03-11T10:05:22;93211.06;;;16.74;41.68
78835;BME280;68187;42.682;23.352;2023-03-11T10:07:57;93201.59;;;16.76;39.05
78835;BME280;68187;42.682;23.352;2023-03-11T10:10:28;93205.75;;;16.42;35.89
78835;BME280;68187;42.682;23.352;2023-03-11T10:13:03;93213.91;;;16.65;36.24
78835;BME280;68187;42.682;23.352;2023-03-11T10:15:39;93205.28;;;16.53;36.32
78835;BME280;68187;42.682;23.352;2023-03-11T10:18:22;93212.50;;;16.52;36.50
78835;BME280;68187;42.682;23.352;2023-03-11T10:20:53;93221.34;;;17.10;39.00
78835;BME280;68187;42.682;23.352;2023-03-11T10:23:28;93216.41;;;17.69;36.27
78835;BME280;68187;42.682;23.352;2023-03-11T10:26:03;93222.38;;;17.86;35.93
78835;BME280;68187;42.682;23.352;2023-03-11T10:28:36;93215.88;;;17.83;36.08
78835;BME280;68187;42.682;23.352;2023-03-11T10:31:13;93213.38;;;17.94;36.18
78835;BME280;68187;42.682;23.352;2023-03-11T10:33:46;93211.34;;;17.64;37.72
78835;BME280;68187;42.682;23.352;2023-03-11T10:36:19;93213.03;;;17.15;37.17
78835;BME280;68187;42.682;23.352;2023-03-11T10:38:49;93208.78;;;16.57;37.82
78835;BME280;68187;42.682;23.352;2023-03-11T10:41:22;93207.19;;;16.21;39.57
78835;BME280;68187;42.682;23.352;2023-03-11T10:43:53;93208.31;;;16.04;40.15
78835;BME280;68187;42.682;23.352;2023-03-11T10:46:24;93211.41;;;15.75;41.43
78835;BME280;68187;42.682;23.352;2023-03-11T10:48:52;93208.56;;;15.52;42.81
78835;BME280;68187;42.682;23.352;2023-03-11T10:51:21;93228.31;;;15.51;43.83
78835;BME280;68187;42.682;23.352;2023-03-11T10:53:50;93244.22;;;14.96;46.53
78835;BME280;68187;42.682;23.352;2023-03-11T10:56:29;93250.53;;;14.40;49.97
78835;BME280;68187;42.682;23.352;2023-03-11T10:58:58;93246.53;;;14.09;50.89
78835;BME280;68187;42.682;23.352;2023-03-11T11:01:25;93238.56;;;13.85;55.19
78835;BME280;68187;42.682;23.352;2023-03-11T11:03:55;93228.25;;;13.72;55.02
78835;BME280;68187;42.682;23.352;2023-03-11T11:06:26;93255.22;;;13.86;52.82
78835;BME280;68187;42.682;23.352;2023-03-11T11:09:05;93257.91;;;13.98;56.51
78835;BME280;68187;42.682;23.352;2023-03-11T11:11:32;93247.75;;;14.24;54.42
78835;BME280;68187;42.682;23.352;2023-03-11T11:14:00;93225.72;;;14.36;50.46
78835;BME280;68187;42.682;23.352;2023-03-11T11:16:27;93229.47;;;14.59;47.25
78835;BME280;68187;42.682;23.352;2023-03-11T11:19:00;93246.03;;;14.80;48.73
78835;BME280;68187;42.682;23.352;2023-03-11T11:21:31;93218.94;;;15.02;48.25
78835;BME280;68187;42.682;23.352;2023-03-11T11:24:11;93220.34;;;15.12;47.83
78835;BME280;68187;42.682;23.352;2023-03-11T11:26:41;93213.31;;;15.04;48.54
78835;BME280;68187;42.682;23.352;2023-03-11T11:29:13;93201.78;;;14.99;48.02
78835;BME280;68187;42.682;23.352;2023-03-11T11:31:41;93178.59;;;14.84;47.35
78835;BME280;68187;42.682;23.352;2023-03-11T11:34:29;93202.56;;;15.00;47.07
78835;BME280;68187;42.682;23.352;2023-03-11T11:37:00;93188.63;;;14.91;46.45
78835;BME280;68187;42.682;23.352;2023-03-11T11:39:31;93164.19;;;14.85;45.26
78835;BME280;68187;42.682;23.352;2023-03-11T11:42:00;93189.19;;;14.96;43.69
78835;BME280;68187;42.682;23.352;2023-03-11T11:44:31;93195.59;;;14.95;43.19
78835;BME280;68187;42.682;23.352;2023-03-11T11:47:03;93190.31;;;14.83;43.19
78835;BME280;68187;42.682;23.352;2023-03-11T11:49:33;93168.00;;;14.72;43.54
78835;BME280;68187;42.682;23.352;2023-03-11T11:52:06;93164.00;;;14.78;43.22
78835;BME280;68187;42.682;23.352;2023-03-11T11:54:37;93162.50;;;14.93;44.84
78835;BME280;68187;42.682;23.352;2023-03-11T11:57:10;93164.53;;;15.27;43.39
78835;BME280;68187;42.682;23.352;2023-03-11T11:59:37;93165.72;;;15.57;43.20
78835;BME280;68187;42.682;23.352;2023-03-11T12:02:16;93146.16;;;15.50;41.57
78835;BME280;68187;42.682;23.352;2023-03-11T12:04:49;93163.06;;;15.73;42.51
78835;BME280;68187;42.682;23.352;2023-03-11T12:07:31;93152.16;;;15.78;43.76
78835;BME280;68187;42.682;23.352;2023-03-11T12:10:08;93147.63;;;15.79;39.02
78835;BME280;68187;42.682;23.352;2023-03-11T12:12:41;93109.75;;;15.54;38.20
78835;BME280;68187;42.682;23.352;2023-03-11T12:15:14;93131.34;;;15.99;37.90
78835;BME280;68187;42.682;23.352;2023-03-11T12:17:46;93142.75;;;16.15;36.16
78835;BME280;68187;42.682;23.352;2023-03-11T12:20:19;93146.28;;;16.19;36.72
78835;BME280;68187;42.682;23.352;2023-03-11T12:23:06;93133.81;;;16.23;36.22
78835;BME280;68187;42.682;23.352;2023-03-11T12:25:38;93138.72;;;16.40;36.23
78835;BME280;68187;42.682;23.352;2023-03-11T12:28:20;93138.94;;;16.86;36.22
78835;BME280;68187;42.682;23.352;2023-03-11T12:30:51;93127.97;;;17.10;34.19
78835;BME280;68187;42.682;23.352;2023-03-11T12:33:26;93146.88;;;16.82;34.81
78835;BME280;68187;42.682;23.352;2023-03-11T12:35:57;93132.06;;;16.66;36.36
78835;BME280;68187;42.682;23.352;2023-03-11T12:38:29;93139.44;;;16.53;36.79
78835;BME280;68187;42.682;23.352;2023-03-11T12:41:05;93132.66;;;16.05;37.07
78835;BME280;68187;42.682;23.352;2023-03-11T12:43:57;93145.88;;;16.02;38.68
78835;BME280;68187;42.682;23.352;2023-03-11T12:49:37;93154.78;;;16.09;38.97
78835;BME280;68187;42.682;23.352;2023-03-11T12:52:16;93161.09;;;16.01;39.12
78835;BME280;68187;42.682;23.352;2023-03-11T12:54:46;93161.00;;;15.82;39.49
78835;BME280;68187;42.682;23.352;2023-03-11T12:57:31;93162.47;;;15.64;40.19
78835;BME280;68187;42.682;23.352;2023-03-11T13:00:25;93163.56;;;15.47;40.63
78835;BME280;68187;42.682;23.352;2023-03-11T13:03:23;93144.09;;;15.16;41.13
78835;BME280;68187;42.682;23.352;2023-03-11T13:05:59;93178.00;;;15.19;42.11
78835;BME280;68187;42.682;23.352;2023-03-11T13:08:32;93188.38;;;15.08;41.38
78835;BME280;68187;42.682;23.352;2023-03-11T13:11:37;93193.28;;;14.94;41.92